Time;durP1;ratioP1;P1;durP2;ratioP2;P2;SDS_P1;SDS_P2;PMS_P1;PMS_P2;Temp;Humidity;BMP_temperature;BMP_pressure;BME280_temperature;BME280_humidity;BME280_pressure;Samples;Min_cycle;Max_cycle;Signal;HPM_P1;HPM_P2
2022/02/09 00:00:42;;;;;;;1.10;0.40;;;;;;;0.56;55.90;98215.75;5042973;28;20139;-72
2022/02/09 00:03:15;;;;;;;0.85;0.40;;;;;;;0.55;55.96;98211.44;5042375;28;20051;-71
2022/02/09 00:08:10;;;;;;;0.98;0.45;;;;;;;0.52;56.07;98213.78;5026069;28;20115;-72
2022/02/09 00:10:39;;;;;;;1.02;0.40;;;;;;;0.50;55.94;98197.91;5049503;28;20095;-73
2022/02/09 00:34:16;;;;;;;2.50;0.75;;;;;;;0.78;55.41;98200.66;5052113;28;20178;-72
2022/02/09 00:44:37;;;;;;;3.42;1.10;;;;;;;0.70;55.57;98200.03;5038326;28;20139;-72
2022/02/09 01:57:39;;;;;;;3.25;1.10;;;;;;;0.29;56.36;98212.91;5046034;28;20047;-72
2022/02/09 02:00:08;;;;;;;2.05;0.88;;;;;;;0.33;56.32;98214.06;5046189;28;20103;-71
2022/02/09 02:02:35;;;;;;;4.65;1.20;;;;;;;0.34;56.51;98210.31;5047306;28;20049;-70
2022/02/09 02:05:01;;;;;;;3.53;1.27;;;;;;;0.33;56.50;98214.06;5047922;28;20551;-69
2022/02/09 02:07:42;;;;;;;6.28;1.30;;;;;;;0.29;56.61;98207.53;5041908;28;20041;-72
2022/02/09 02:10:11;;;;;;;4.40;1.70;;;;;;;0.28;56.77;98213.97;5051906;28;20045;-72
2022/02/09 02:12:58;;;;;;;5.83;1.73;;;;;;;0.29;56.78;98215.59;5049616;28;20044;-68
2022/02/09 02:15:55;;;;;;;4.75;1.42;;;;;;;0.30;56.65;98213.75;5043277;28;20517;-70
2022/02/09 02:18:16;;;;;;;4.20;1.30;;;;;;;0.28;56.88;98214.81;5051170;28;20416;-70
2022/02/09 02:23:33;;;;;;;4.18;1.30;;;;;;;0.32;56.91;98217.00;5047402;28;20049;-71
2022/02/09 02:29:14;;;;;;;3.10;1.08;;;;;;;0.21;57.17;98213.34;5040907;28;20053;-72
2022/02/09 02:58:35;;;;;;;5.65;1.55;;;;;;;-0.03;58.11;98225.09;5049194;28;20140;-69
2022/02/09 03:09:32;;;;;;;5.70;1.70;;;;;;;-0.10;58.82;98227.09;5051762;28;20555;-68
2022/02/09 03:17:41;;;;;;;5.72;1.70;;;;;;;-0.08;59.10;98225.00;5047600;28;20097;-70
2022/02/09 03:23:02;;;;;;;5.10;1.55;;;;;;;-0.22;59.65;98223.69;5046872;28;20053;-70
2022/02/09 03:25:48;;;;;;;4.72;1.70;;;;;;;-0.23;59.63;98225.56;5044653;28;20044;-71
2022/02/09 03:31:22;;;;;;;5.20;1.67;;;;;;;-0.23;59.73;98230.13;5041417;28;20056;-70
2022/02/09 03:45:15;;;;;;;4.90;1.55;;;;;;;-0.10;59.68;98232.47;5035385;28;20052;-69
2022/02/09 03:47:47;;;;;;;5.55;1.88;;;;;;;-0.12;59.59;98225.72;5042089;28;20140;-70
2022/02/09 03:50:42;;;;;;;4.70;1.50;;;;;;;-0.12;59.61;98225.72;5048719;28;20040;-70
2022/02/09 03:53:24;;;;;;;4.13;1.60;;;;;;;-0.21;59.68;98212.69;5050602;28;20041;-70
2022/02/09 03:58:17;;;;;;;6.25;1.95;;;;;;;0.06;59.29;98230.03;5049776;28;20398;-71
2022/02/09 04:00:46;;;;;;;5.20;1.77;;;;;;;0.13;59.21;98215.38;5043424;28;20052;-72
2022/02/09 04:03:20;;;;;;;6.22;1.80;;;;;;;0.22;58.90;98228.41;5058037;28;20085;-70
2022/02/09 04:05:48;;;;;;;9.25;3.10;;;;;;;0.18;58.86;98220.03;5048666;28;20091;-72
2022/02/09 04:08:17;;;;;;;4.43;1.90;;;;;;;0.28;58.78;98222.03;5017671;28;20492;-69
2022/02/09 04:10:56;;;;;;;6.15;1.92;;;;;;;0.25;58.80;98217.16;5039759;28;20558;-70
2022/02/09 04:13:37;;;;;;;5.60;1.90;;;;;;;0.30;58.75;98224.50;5059554;28;20041;-70
2022/02/09 04:38:43;;;;;;;6.15;1.90;;;;;;;0.30;57.89;98219.13;5042452;28;20045;-70
2022/02/09 04:51:58;;;;;;;5.28;2.08;;;;;;;0.21;57.31;98218.72;5040155;28;20076;-69
2022/02/09 04:54:38;;;;;;;4.75;1.90;;;;;;;0.31;57.20;98220.75;5051713;28;20505;-70
2022/02/09 04:57:12;;;;;;;5.50;2.20;;;;;;;0.32;56.94;98222.38;5040863;28;20061;-69
2022/02/09 04:59:57;;;;;;;6.25;2.00;;;;;;;0.34;56.68;98225.63;5035350;28;20076;-70
2022/02/09 05:24:47;;;;;;;4.78;2.08;;;;;;;0.35;56.95;98238.84;5034837;28;20142;-71
2022/02/09 05:27:35;;;;;;;5.68;2.05;;;;;;;0.45;56.87;98248.94;5045187;28;20040;-71
2022/02/09 05:30:06;;;;;;;4.85;1.90;;;;;;;0.34;57.13;98244.44;5048637;28;20041;-71
2022/02/09 05:32:32;;;;;;;7.53;2.20;;;;;;;0.40;57.05;98246.19;5040879;28;20160;-72
2022/02/09 05:34:58;;;;;;;5.80;2.40;;;;;;;0.41;57.21;98243.22;5044423;28;20040;-71
2022/02/09 05:40:11;;;;;;;6.45;2.20;;;;;;;0.28;57.67;98243.56;5038321;28;20109;-70
2022/02/09 05:42:37;;;;;;;6.50;2.08;;;;;;;0.34;57.54;98250.66;5046501;28;20132;-70
2022/02/09 05:45:08;;;;;;;6.97;2.22;;;;;;;0.28;57.87;98249.75;5048961;28;20049;-70
2022/02/09 05:53:07;;;;;;;7.85;2.53;;;;;;;0.52;57.31;98249.56;5047840;28;20166;-70
2022/02/09 05:58:08;;;;;;;7.63;2.70;;;;;;;0.38;57.73;98249.09;5047464;28;20229;-71
2022/02/09 06:00:35;;;;;;;8.60;3.22;;;;;;;0.28;57.58;98227.41;5050938;28;20148;-69
2022/02/09 06:03:01;;;;;;;7.53;2.70;;;;;;;0.40;57.71;98255.03;5039993;28;20056;-69
2022/02/09 06:05:30;;;;;;;9.48;3.13;;;;;;;0.35;57.79;98248.78;5018332;28;20103;-69
2022/02/09 06:07:58;;;;;;;10.88;3.78;;;;;;;0.40;57.98;98256.94;5038740;28;20099;-69
2022/02/09 06:10:29;;;;;;;7.93;2.90;;;;;;;0.43;57.95;98261.81;5053017;28;20048;-69
2022/02/09 06:13:13;;;;;;;11.75;3.50;;;;;;;0.36;58.08;98256.59;5046906;28;20072;-71
2022/02/09 06:20:57;;;;;;;9.40;3.35;;;;;;;0.39;58.17;98264.16;5041765;28;20401;-75
2022/02/09 06:23:25;;;;;;;9.75;3.45;;;;;;;0.27;58.43;98255.38;5050143;28;20049;-75
2022/02/09 06:25:52;;;;;;;8.82;3.22;;;;;;;0.29;58.53;98266.69;5050240;28;20447;-75
2022/02/09 06:28:18;;;;;;;12.10;3.55;;;;;;;0.30;58.72;98270.22;5041670;28;20060;-74
2022/02/09 06:30:44;;;;;;;10.75;3.40;;;;;;;0.29;58.92;98274.75;5034684;28;20049;-75
2022/02/09 06:33:11;;;;;;;11.95;3.55;;;;;;;0.25;59.16;98271.75;5042743;28;20052;-74
2022/02/09 06:35:37;;;;;;;10.27;4.10;;;;;;;0.31;58.93;98269.16;5049134;28;20045;-73
2022/02/09 06:38:03;;;;;;;12.38;4.50;;;;;;;0.25;59.28;98279.84;5043210;28;20052;-74
2022/02/09 06:40:31;;;;;;;10.75;4.00;;;;;;;0.26;59.39;98283.31;5050998;28;20055;-75
2022/02/09 06:42:57;;;;;;;;;;;;;;;0.21;59.53;98292.13;5048012;28;20051;-74
2022/02/09 06:45:27;;;;;;;10.52;3.28;;;;;;;0.16;59.52;98289.34;5046430;28;21490;-75
2022/02/09 06:47:54;;;;;;;11.13;3.85;;;;;;;0.11;59.75;98286.59;5027985;28;20044;-74
2022/02/09 06:52:57;;;;;;;8.75;3.22;;;;;;;0.22;59.47;98290.25;5049592;28;20045;-75
2022/02/09 06:55:24;;;;;;;7.95;3.28;;;;;;;0.18;59.52;98289.13;5050492;28;20144;-74
2022/02/09 07:00:22;;;;;;;9.25;3.50;;;;;;;0.26;59.75;98299.44;5041731;28;20156;-74
2022/02/09 07:02:48;;;;;;;12.00;3.83;;;;;;;0.22;59.63;98309.06;5036713;28;20045;-75
2022/02/09 07:05:15;;;;;;;10.30;3.45;;;;;;;0.34;59.66;98300.91;5040673;28;20134;-75
2022/02/09 07:07:42;;;;;;;9.98;3.58;;;;;;;0.44;59.32;98303.78;5040486;28;20134;-74
2022/02/09 07:10:09;;;;;;;13.48;3.78;;;;;;;0.50;59.27;98307.38;5040218;28;20052;-75
2022/02/09 07:12:38;;;;;;;9.73;3.17;;;;;;;0.36;59.84;98302.31;5043900;28;20052;-75
2022/02/09 07:15:12;;;;;;;7.60;2.80;;;;;;;0.46;59.88;98308.91;5040655;28;20295;-74
2022/02/09 07:17:39;;;;;;;9.50;3.30;;;;;;;0.42;59.40;98285.19;5041353;28;20049;-74
2022/02/09 07:20:12;;;;;;;8.98;3.08;;;;;;;0.65;59.18;98296.00;5040787;28;20203;-74
2022/02/09 07:22:38;;;;;;;8.55;2.83;;;;;;;0.76;58.87;98296.97;5035509;28;20057;-74
2022/02/09 07:25:13;;;;;;;7.95;2.92;;;;;;;0.80;58.93;98301.63;5045837;28;20458;-71
2022/02/09 07:27:51;;;;;;;8.82;3.00;;;;;;;0.80;58.90;98293.53;5046928;28;20045;-68
2022/02/09 07:30:22;;;;;;;8.52;3.00;;;;;;;1.03;58.41;98301.66;5059258;28;20056;-68
2022/02/09 07:32:51;;;;;;;13.55;3.10;;;;;;;0.95;58.59;98300.19;5050365;28;20132;-70
2022/02/09 07:35:17;;;;;;;10.07;2.88;;;;;;;0.91;58.87;98302.56;5042594;28;20068;-70
2022/02/09 07:37:43;;;;;;;8.38;2.92;;;;;;;1.11;58.48;98304.72;5046761;28;20052;-69
2022/02/09 07:40:12;;;;;;;8.25;2.60;;;;;;;1.22;58.09;98286.03;5052612;28;20554;-69
2022/02/09 07:43:19;;;;;;;8.32;2.70;;;;;;;1.31;58.28;98308.75;5051885;28;20053;-67
2022/02/09 07:51:00;;;;;;;8.52;2.88;;;;;;;2.04;57.21;98320.31;5050965;28;19967;-68
2022/02/09 07:53:26;;;;;;;10.10;3.10;;;;;;;2.29;56.39;98316.25;5049407;28;20053;-70
2022/02/09 07:55:52;;;;;;;12.00;3.15;;;;;;;2.41;56.07;98314.16;5051169;28;20048;-72
2022/02/09 07:58:19;;;;;;;8.85;2.97;;;;;;;2.54;55.89;98312.94;5033294;28;20045;-69
2022/02/09 08:00:46;;;;;;;10.40;3.00;;;;;;;2.56;56.07;98313.47;5042519;28;20049;-74
2022/02/09 08:03:12;;;;;;;8.90;2.90;;;;;;;2.75;56.04;98313.91;5047812;28;20043;-73
2022/02/09 08:05:38;;;;;;;9.35;3.20;;;;;;;2.86;55.60;98313.94;5036646;28;20151;-73
2022/02/09 08:08:05;;;;;;;9.13;2.58;;;;;;;2.96;55.81;98314.81;5040386;28;20049;-73
2022/02/09 08:10:44;;;;;;;9.48;3.08;;;;;;;3.11;55.33;98321.38;5041087;28;20049;-73
2022/02/09 08:34:12;;;;;;;8.82;2.50;;;;;;;3.70;53.03;98314.06;5035210;28;20061;-72
2022/02/09 08:36:39;;;;;;;7.97;2.60;;;;;;;3.86;52.69;98320.34;5046757;28;20128;-72
2022/02/09 08:39:06;;;;;;;9.43;2.50;;;;;;;3.86;52.46;98293.28;5033124;28;20118;-72
2022/02/09 08:41:33;;;;;;;8.00;2.70;;;;;;;4.07;51.90;98310.38;5051800;28;20075;-72
2022/02/09 08:43:59;;;;;;;6.05;2.20;;;;;;;4.32;51.37;98308.75;5050612;28;20507;-72
2022/02/09 08:46:25;;;;;;;7.07;2.60;;;;;;;4.44;50.66;98305.78;5049226;28;20408;-70
2022/02/09 08:48:52;;;;;;;8.30;2.10;;;;;;;4.62;50.18;98309.03;5051294;28;20052;-70
2022/02/09 08:51:22;;;;;;;6.30;2.17;;;;;;;4.81;49.61;98306.56;5050147;28;20045;-71
2022/02/09 08:53:48;;;;;;;5.88;2.10;;;;;;;4.93;49.26;98304.38;5049981;28;20045;-70
2022/02/09 08:56:15;;;;;;;8.75;2.30;;;;;;;4.98;48.83;98311.69;5045812;28;20120;-70
2022/02/09 08:58:43;;;;;;;8.32;2.50;;;;;;;5.11;48.63;98310.28;5053344;28;20041;-71
2022/02/09 09:01:21;;;;;;;7.50;2.20;;;;;;;5.24;48.58;98306.22;5045909;28;20073;-70
2022/02/09 09:03:52;;;;;;;6.93;2.67;;;;;;;5.33;48.19;98307.25;5065491;28;20077;-70
2022/02/09 09:06:24;;;;;;;10.10;2.35;;;;;;;5.31;47.72;98309.44;5037727;28;20179;-71
2022/02/09 09:17:21;;;;;;;9.05;2.60;;;;;;;5.90;46.62;98323.28;5050900;28;20053;-72
2022/02/09 09:31:10;;;;;;;7.28;2.42;;;;;;;6.07;45.72;98317.47;5042400;28;20095;-70
2022/02/09 10:34:05;;;;;;;3.88;1.70;;;;;;;9.11;36.74;98302.31;5051966;28;20064;-73
2022/02/09 10:36:44;;;;;;;6.13;1.70;;;;;;;8.76;36.51;98288.25;5052502;28;20583;-76
2022/02/09 10:39:14;;;;;;;4.43;1.67;;;;;;;7.99;38.37;98299.22;5052664;28;20511;-73
2022/02/09 10:41:50;;;;;;;5.63;1.80;;;;;;;8.23;37.87;98307.31;5049746;28;20541;-72
2022/02/09 10:44:23;;;;;;;5.15;1.70;;;;;;;8.75;37.00;98298.31;5052770;28;20393;-73
2022/02/09 10:46:55;;;;;;;4.80;1.70;;;;;;;9.48;36.32;98308.69;5039681;28;20042;-73
2022/02/09 10:49:25;;;;;;;5.82;2.00;;;;;;;10.09;35.31;98294.03;5047066;28;20057;-73
2022/02/09 10:52:05;;;;;;;5.00;1.90;;;;;;;10.76;34.72;98292.44;5035220;28;20045;-75
2022/02/09 10:54:34;;;;;;;6.18;2.05;;;;;;;9.86;36.07;98302.16;5041073;28;20570;-74
2022/02/09 10:57:03;;;;;;;5.80;2.00;;;;;;;9.16;37.26;98296.75;5043645;28;20041;-74
2022/02/09 10:59:35;;;;;;;6.40;2.20;;;;;;;8.72;38.08;98309.84;5056941;28;20052;-74
2022/02/09 11:02:03;;;;;;;6.05;2.03;;;;;;;8.31;38.78;98296.84;5041225;28;20468;-75
2022/02/09 11:04:32;;;;;;;8.07;2.20;;;;;;;8.33;38.83;98295.44;5045376;28;20450;-74
2022/02/09 11:06:59;;;;;;;7.60;1.90;;;;;;;8.79;37.83;98293.88;5041833;28;20052;-73
2022/02/09 11:09:27;;;;;;;7.97;2.15;;;;;;;9.12;37.55;98289.47;5063944;28;20060;-75
2022/02/09 11:11:53;;;;;;;8.02;1.98;;;;;;;8.80;37.67;98295.50;5048498;28;20049;-74
2022/02/09 11:14:21;;;;;;;4.72;1.80;;;;;;;8.50;38.23;98302.28;5033061;28;20092;-74
2022/02/09 11:16:52;;;;;;;6.32;1.90;;;;;;;8.27;38.27;98288.44;5032605;28;20048;-75
2022/02/09 11:19:19;;;;;;;6.55;2.15;;;;;;;8.16;38.92;98297.91;5048936;28;20052;-76
2022/02/09 11:21:50;;;;;;;14.85;2.00;;;;;;;8.14;38.91;98298.19;5045359;28;20084;-75
2022/02/09 11:24:20;;;;;;;9.98;1.95;;;;;;;7.65;39.72;98301.03;5042628;28;20044;-76
2022/02/09 11:26:55;;;;;;;7.20;2.10;;;;;;;8.25;39.10;98290.66;5044981;28;20049;-75
2022/02/09 11:32:23;;;;;;;5.95;2.25;;;;;;;8.36;39.10;98299.50;5052061;28;20045;-75
2022/02/09 11:40:47;;;;;;;7.55;2.00;;;;;;;8.51;38.57;98302.00;5046582;28;20136;-74
2022/02/09 11:43:43;;;;;;;7.72;1.90;;;;;;;8.23;38.96;98320.09;5040111;28;20037;-74
2022/02/09 11:46:28;;;;;;;6.53;2.00;;;;;;;7.87;39.27;98312.47;5045251;28;20059;-73
2022/02/09 12:09:36;;;;;;;5.68;1.95;;;;;;;5.68;42.61;98318.22;5050291;28;20056;-69
2022/02/09 12:12:06;;;;;;;4.90;1.80;;;;;;;5.29;43.25;98330.56;5047462;28;20045;-69
2022/02/09 12:20:08;;;;;;;5.00;1.70;;;;;;;5.39;43.38;98327.84;5053738;28;20048;-69
2022/02/09 12:22:43;;;;;;;7.05;1.70;;;;;;;5.13;43.76;98326.28;5045198;28;20041;-70
2022/02/09 12:25:10;;;;;;;6.95;2.05;;;;;;;4.95;44.25;98326.59;5045240;28;20052;-69
2022/02/09 12:27:37;;;;;;;6.28;2.05;;;;;;;4.59;44.92;98332.06;5045262;28;20094;-69
2022/02/09 12:30:10;;;;;;;9.95;2.42;;;;;;;4.56;45.12;98324.47;5035999;28;20568;-70
2022/02/09 12:32:37;;;;;;;8.00;2.03;;;;;;;4.34;45.74;98333.66;5017859;28;20049;-69
2022/02/09 12:35:06;;;;;;;6.97;2.17;;;;;;;4.36;45.70;98328.78;5041978;28;20047;-69
2022/02/09 12:37:34;;;;;;;6.85;2.25;;;;;;;4.29;45.93;98341.78;5019449;28;20095;-69
2022/02/09 12:40:05;;;;;;;6.53;2.30;;;;;;;4.10;46.44;98338.75;5040050;28;20095;-69
2022/02/09 12:42:33;;;;;;;6.68;2.55;;;;;;;3.92;46.95;98353.63;5044999;28;20455;-69
2022/02/09 12:45:04;;;;;;;8.02;2.45;;;;;;;3.62;47.33;98325.41;5059153;28;20526;-69
2022/02/09 12:47:32;;;;;;;7.45;2.33;;;;;;;3.78;47.20;98348.72;5043350;28;20570;-69
2022/02/09 12:50:00;;;;;;;7.95;2.42;;;;;;;3.54;47.83;98353.75;5048643;28;20049;-70
2022/02/09 12:52:30;;;;;;;10.98;2.58;;;;;;;3.73;47.45;98348.66;5050183;28;20566;-69
2022/02/09 12:55:04;;;;;;;10.52;2.42;;;;;;;3.80;47.46;98349.25;5044823;28;20049;-70
2022/02/09 12:57:35;;;;;;;7.60;2.47;;;;;;;3.90;47.15;98340.34;5041966;28;20544;-70
2022/02/09 13:00:01;;;;;;;8.20;2.90;;;;;;;3.70;47.68;98351.91;5047560;28;20041;-69
2022/02/09 13:02:41;;;;;;;6.00;2.28;;;;;;;3.50;48.32;98353.47;5045890;28;20049;-69
2022/02/09 13:05:07;;;;;;;;;;;;;;;3.48;48.41;98352.91;5042149;28;20060;-70
2022/02/09 13:07:33;;;;;;;10.73;2.53;;;;;;;3.51;48.02;98352.38;5034347;28;19925;-68
2022/02/09 13:09:59;;;;;;;11.05;2.65;;;;;;;3.53;48.20;98357.53;5045787;28;20396;-69
2022/02/09 13:12:27;;;;;;;7.75;2.80;;;;;;;3.36;48.75;98361.25;5050711;28;20132;-75
2022/02/09 13:15:02;;;;;;;10.68;2.47;;;;;;;3.37;48.75;98367.44;5045441;28;20140;-72
2022/02/09 13:26:26;;;;;;;7.25;2.70;;;;;;;3.34;49.14;98362.56;5045631;28;20115;-73
2022/02/09 13:52:09;;;;;;;8.35;2.90;;;;;;;3.12;50.10;98366.22;5044403;28;20049;-71
2022/02/09 14:13:55;;;;;;;9.02;3.33;;;;;;;2.70;51.49;98375.91;5079878;28;20057;-73
2022/02/09 14:16:37;;;;;;;10.80;3.58;;;;;;;2.45;52.19;98377.34;5048733;28;20095;-73
2022/02/09 14:49:57;;;;;;;10.23;4.10;;;;;;;2.34;52.95;98368.34;5043361;28;20057;-73
2022/02/09 14:54:39;;;;;;;12.35;4.32;;;;;;;2.26;53.29;98385.81;5041556;28;20053;-74
2022/02/09 14:57:16;;;;;;;12.00;4.20;;;;;;;2.09;54.06;98383.19;5045729;28;20045;-74
2022/02/09 15:02:15;;;;;;;11.73;3.85;;;;;;;2.09;53.93;98377.81;5037083;28;20045;-71
2022/02/09 15:08:06;;;;;;;12.20;4.03;;;;;;;1.92;54.25;98375.19;5012765;28;20049;-71
2022/02/09 15:10:41;;;;;;;11.35;4.00;;;;;;;2.03;54.38;98388.78;5038132;28;20464;-69
2022/02/09 15:13:35;;;;;;;30.27;5.03;;;;;;;1.80;54.85;98388.00;5034054;28;20057;-71
2022/02/09 15:21:20;;;;;;;11.60;4.40;;;;;;;1.74;55.50;98395.22;5016828;28;20045;-71
2022/02/09 15:23:50;;;;;;;11.98;4.00;;;;;;;1.73;55.73;98398.97;5016415;28;20533;-70
2022/02/09 15:26:19;;;;;;;13.65;4.60;;;;;;;1.59;56.31;98395.03;5025515;28;20215;-71
2022/02/09 15:28:46;;;;;;;13.05;4.32;;;;;;;1.77;56.18;98399.28;5047297;28;20069;-71
2022/02/09 15:31:20;;;;;;;10.60;4.13;;;;;;;1.69;56.64;98392.44;5029149;28;20068;-70
2022/02/09 15:33:51;;;;;;;14.52;4.38;;;;;;;1.79;56.48;98397.97;5029464;28;20052;-71
2022/02/09 15:36:28;;;;;;;13.23;4.45;;;;;;;1.69;56.98;98397.84;5040821;28;20599;-71
2022/02/09 15:38:55;;;;;;;12.52;4.47;;;;;;;1.80;57.12;98404.97;5025229;28;20058;-71
2022/02/09 15:41:29;;;;;;;12.25;4.78;;;;;;;1.71;57.14;98398.41;5031421;28;20046;-72
2022/02/09 15:57:57;;;;;;;10.02;4.03;;;;;;;1.61;58.82;98409.06;5022078;28;20080;-74
2022/02/09 16:05:58;;;;;;;13.43;4.90;;;;;;;1.64;59.48;98409.38;5044350;28;20106;-77
2022/02/09 16:17:07;;;;;;;12.80;4.47;;;;;;;1.79;60.01;98416.84;5022643;28;20136;-69
2022/02/09 16:38:23;;;;;;;12.13;4.38;;;;;;;1.28;62.80;98416.97;4995168;28;20059;-71
2022/02/09 16:46:24;;;;;;;11.63;4.35;;;;;;;1.39;62.55;98407.16;5029676;28;20061;-77
2022/02/09 16:51:26;;;;;;;14.43;5.03;;;;;;;1.30;63.06;98419.44;5020182;28;20119;-74
2022/02/09 16:54:25;;;;;;;13.02;4.82;;;;;;;1.29;62.83;98418.59;5025387;28;20072;-75
2022/02/09 16:57:07;;;;;;;13.27;4.65;;;;;;;1.34;63.07;98415.16;5025543;28;20533;-73
2022/02/09 17:21:14;;;;;;;12.82;5.20;;;;;;;1.64;62.03;98398.63;5016060;28;20038;-71
2022/02/09 17:23:41;;;;;;;14.63;5.18;;;;;;;1.63;62.46;98413.13;5020059;28;20155;-72
2022/02/09 17:26:09;;;;;;;14.40;5.85;;;;;;;1.68;62.34;98410.50;5026838;28;20072;-71
2022/02/09 17:28:35;;;;;;;13.95;6.13;;;;;;;1.79;62.00;98407.91;5027580;28;20049;-72
2022/02/09 17:36:43;;;;;;;16.08;6.00;;;;;;;1.80;62.57;98409.56;5021147;28;20049;-70
2022/02/09 17:58:18;;;;;;;14.43;7.03;;;;;;;1.77;62.95;98410.06;5029013;28;20056;-72
2022/02/09 18:00:47;;;;;;;17.38;6.65;;;;;;;1.84;62.98;98406.09;5013499;28;20501;-78
2022/02/09 18:03:15;;;;;;;15.88;6.72;;;;;;;1.83;62.92;98403.69;5005953;28;20045;-79
2022/02/09 18:08:18;;;;;;;17.13;6.93;;;;;;;1.96;62.58;98400.59;5020952;28;20068;-77
2022/02/09 18:47:51;;;;;;;17.15;8.40;;;;;;;2.02;62.07;98387.97;5013022;28;20448;-77
2022/02/09 19:04:24;;;;;;;19.70;7.63;;;;;;;2.17;62.16;98384.63;5020500;28;20072;-74
2022/02/09 19:28:58;;;;;;;15.15;6.53;;;;;;;2.27;61.94;98405.50;5025464;28;20049;-74
2022/02/09 19:42:25;;;;;;;13.25;6.25;;;;;;;2.30;61.82;98404.97;5028618;28;20151;-74
2022/02/09 19:49:14;;;;;;;13.07;6.03;;;;;;;2.18;62.23;98407.00;5031196;28;20231;-74
2022/02/09 19:57:03;;;;;;;14.73;6.38;;;;;;;2.26;61.96;98401.16;5008227;28;20045;-74
2022/02/09 19:59:31;;;;;;;15.73;6.57;;;;;;;2.28;61.70;98400.94;5015276;28;20049;-73
2022/02/09 20:01:57;;;;;;;13.85;6.47;;;;;;;2.30;61.94;98407.69;5024499;28;20050;-72
2022/02/09 20:04:25;;;;;;;16.10;7.28;;;;;;;2.28;61.96;98404.44;5010417;28;20045;-74
2022/02/09 20:06:51;;;;;;;15.73;6.95;;;;;;;2.26;62.05;98398.47;5018082;28;20493;-74
2022/02/09 20:09:19;;;;;;;15.98;6.80;;;;;;;2.24;62.06;98406.81;5023665;28;20089;-73
2022/02/09 20:11:47;;;;;;;14.40;6.63;;;;;;;2.21;62.13;98403.81;5027517;28;20049;-74
2022/02/09 20:14:14;;;;;;;19.02;7.28;;;;;;;2.28;62.06;98401.72;5024454;28;20081;-72
2022/02/09 20:16:40;;;;;;;16.38;6.38;;;;;;;2.32;61.81;98402.84;5026422;28;20055;-73
2022/02/09 20:19:07;;;;;;;14.77;6.53;;;;;;;2.43;61.72;98413.75;5017425;28;20595;-74
2022/02/09 20:21:36;;;;;;;16.55;6.53;;;;;;;2.33;61.85;98398.28;5022768;28;20404;-75
2022/02/09 20:24:04;;;;;;;15.50;6.75;;;;;;;2.39;61.60;98403.47;5019851;28;20493;-73
2022/02/09 20:26:32;;;;;;;13.88;6.43;;;;;;;2.45;61.53;98406.19;5017960;28;20049;-75
2022/02/09 20:29:04;;;;;;;18.17;7.32;;;;;;;2.46;61.43;98413.22;5021202;28;20498;-75
2022/02/09 20:31:35;;;;;;;15.23;7.28;;;;;;;2.49;61.37;98401.91;5020219;28;20049;-75
2022/02/09 20:34:14;;;;;;;15.75;6.80;;;;;;;2.45;61.52;98404.34;5022697;28;20038;-74
2022/02/09 20:36:42;;;;;;;18.20;8.10;;;;;;;2.49;61.37;98405.44;5035696;28;20058;-75
2022/02/09 20:39:12;;;;;;;19.27;7.80;;;;;;;2.42;61.53;98399.44;5015289;28;20516;-74
2022/02/09 22:27:17;;;;;;;18.38;7.20;;;;;;;2.29;61.12;98389.88;5022418;28;20045;-75
2022/02/09 22:45:31;;;;;;;18.77;7.20;;;;;;;2.25;61.13;98392.25;5014215;28;20049;-74
2022/02/09 22:50:57;;;;;;;14.80;6.13;;;;;;;2.24;60.63;98387.94;5026453;28;20054;-73
2022/02/09 22:56:10;;;;;;;16.20;5.90;;;;;;;2.16;60.95;98380.31;5032246;28;20049;-74
2022/02/09 22:58:36;;;;;;;16.27;6.10;;;;;;;2.21;60.71;98379.56;5035935;28;20085;-75
2022/02/09 23:01:19;;;;;;;16.30;5.90;;;;;;;2.23;60.71;98382.81;5028373;28;20311;-74
